Time;durP1;ratioP1;P1;durP2;ratioP2;P2;SDS_P1;SDS_P2;PMS_P1;PMS_P2;Temp;Humidity;BMP_temperature;BMP_pressure;BME280_temperature;BME280_humidity;BME280_pressure;Samples;Min_cycle;Max_cycle;Signal;HPM_P1;HPM_P2
2022/11/07 00:02:12;;;;;;;9.98;6.28;;;10.40;80.20;;;;;;5095563;28;20036;-71
2022/11/07 00:04:38;;;;;;;11.43;6.43;;;10.40;80.30;;;;;;5095140;28;20031;-68
2022/11/07 00:07:04;;;;;;;15.45;6.13;;;10.30;80.30;;;;;;5104552;28;20024;-70
2022/11/07 00:09:30;;;;;;;12.83;6.87;;;10.30;81.20;;;;;;5102098;28;20373;-69
2022/11/07 00:11:55;;;;;;;11.35;6.45;;;10.30;81.30;;;;;;5097638;28;20028;-69
2022/11/07 00:14:21;;;;;;;10.17;6.90;;;10.30;81.00;;;;;;5108439;28;20046;-68
2022/11/07 00:16:47;;;;;;;9.80;6.40;;;10.30;81.70;;;;;;5096029;28;20112;-69
2022/11/07 00:19:15;;;;;;;10.90;6.23;;;10.20;81.10;;;;;;5111973;28;20169;-66
2022/11/07 00:21:42;;;;;;;10.43;6.10;;;10.20;81.10;;;;;;5099550;28;20043;-70
2022/11/07 00:24:08;;;;;;;11.60;5.87;;;10.20;81.20;;;;;;5107674;28;20040;-71
2022/11/07 00:26:34;;;;;;;9.33;5.17;;;10.20;81.10;;;;;;5094896;28;20035;-71
2022/11/07 00:29:00;;;;;;;9.90;4.77;;;10.20;80.90;;;;;;5105645;28;20047;-70
2022/11/07 00:31:26;;;;;;;9.33;4.40;;;10.20;80.70;;;;;;5101565;28;20027;-69
2022/11/07 00:33:52;;;;;;;7.93;4.40;;;10.20;81.30;;;;;;5097681;28;20078;-69
2022/11/07 00:36:20;;;;;;;6.87;4.80;;;10.10;81.00;;;;;;5092140;28;20462;-70
2022/11/07 00:38:46;;;;;;;9.10;5.43;;;10.10;81.10;;;;;;5107693;28;20517;-69
2022/11/07 00:41:12;;;;;;;7.85;4.78;;;10.10;81.20;;;;;;5099348;28;20597;-69
2022/11/07 00:43:37;;;;;;;6.95;4.28;;;10.10;80.90;;;;;;5100205;28;20063;-66
2022/11/07 00:46:05;;;;;;;6.90;4.17;;;10.10;80.30;;;;;;5091295;28;20082;-70
2022/11/07 00:48:31;;;;;;;6.13;3.30;;;10.10;80.20;;;;;;5092011;28;20036;-69
2022/11/07 00:51:04;;;;;;;5.07;3.60;;;10.10;80.10;;;;;;5105747;28;20028;-70
2022/11/07 00:53:29;;;;;;;7.30;3.70;;;10.10;80.30;;;;;;5102002;28;20118;-70
2022/11/07 00:56:00;;;;;;;9.13;3.97;;;10.00;80.30;;;;;;5099790;28;20114;-70
2022/11/07 00:58:25;;;;;;;6.13;4.10;;;10.00;80.60;;;;;;5112332;28;20035;-69
2022/11/07 01:00:51;;;;;;;5.03;3.57;;;10.00;80.70;;;;;;5099220;28;20076;-71
2022/11/07 01:06:03;;;;;;;6.93;3.97;;;10.00;81.00;;;;;;5109254;28;20058;-69
2022/11/07 01:08:29;;;;;;;16.23;3.63;;;9.90;80.70;;;;;;5103024;28;20485;-68
2022/11/07 01:10:55;;;;;;;4.77;3.33;;;9.90;80.60;;;;;;5111860;28;20166;-70
2022/11/07 01:13:22;;;;;;;4.07;3.07;;;9.90;80.40;;;;;;5115770;28;20389;-70
2022/11/07 01:15:48;;;;;;;4.97;3.03;;;9.90;80.70;;;;;;5108088;27;20474;-69
2022/11/07 01:18:14;;;;;;;6.35;3.13;;;9.90;81.20;;;;;;5105870;28;20031;-69
2022/11/07 01:20:40;;;;;;;5.53;3.10;;;9.90;81.40;;;;;;5100674;28;20040;-71
2022/11/07 01:23:06;;;;;;;5.03;3.13;;;9.90;81.80;;;;;;5111894;28;20031;-70
2022/11/07 01:25:34;;;;;;;4.87;3.07;;;9.90;82.00;;;;;;5099995;28;20031;-65
2022/11/07 01:28:00;;;;;;;5.43;3.07;;;9.90;81.80;;;;;;5110415;28;20028;-68
2022/11/07 01:30:25;;;;;;;4.60;3.13;;;9.80;82.60;;;;;;5103698;28;20173;-67
2022/11/07 01:32:51;;;;;;;10.33;3.50;;;9.90;82.60;;;;;;5103019;28;20552;-68
2022/11/07 01:35:17;;;;;;;6.77;3.73;;;9.90;82.20;;;;;;5111425;28;20040;-68
2022/11/07 01:37:42;;;;;;;5.50;3.57;;;9.80;81.60;;;;;;5096043;28;20028;-69
2022/11/07 01:40:09;;;;;;;7.10;4.17;;;9.80;82.40;;;;;;5116069;28;20062;-70
2022/11/07 01:42:34;;;;;;;6.20;4.00;;;9.80;82.20;;;;;;5116104;28;20392;-68
2022/11/07 01:45:00;;;;;;;9.03;4.50;;;9.80;81.90;;;;;;5098331;28;20123;-69
2022/11/07 01:47:30;;;;;;;6.70;4.10;;;9.80;81.90;;;;;;5110567;28;20107;-70
2022/11/07 01:49:57;;;;;;;8.50;4.20;;;9.70;81.70;;;;;;5104286;28;20046;-67
2022/11/07 01:52:27;;;;;;;8.73;4.33;;;9.70;81.90;;;;;;5102789;28;20550;-70
2022/11/07 01:55:03;;;;;;;7.60;4.17;;;9.70;82.10;;;;;;5111839;28;20046;-69
2022/11/07 01:57:52;;;;;;;8.00;4.30;;;9.70;82.80;;;;;;5100104;28;20499;-69
2022/11/07 02:00:20;;;;;;;8.57;4.40;;;9.60;82.60;;;;;;5085287;28;20083;-67
2022/11/07 02:02:49;;;;;;;8.30;4.60;;;9.60;82.50;;;;;;5108137;28;20027;-69
2022/11/07 02:05:23;;;;;;;12.40;5.20;;;9.60;82.20;;;;;;5097192;28;20111;-68
2022/11/07 02:07:49;;;;;;;6.13;3.90;;;9.60;82.10;;;;;;5099529;28;20044;-69
2022/11/07 02:10:15;;;;;;;5.60;3.80;;;9.60;82.00;;;;;;5104306;28;20119;-68
2022/11/07 02:12:42;;;;;;;9.50;3.60;;;9.60;82.20;;;;;;5115621;28;20032;-69
2022/11/07 02:15:09;;;;;;;6.97;3.70;;;9.60;82.50;;;;;;5106462;28;20486;-69
2022/11/07 02:17:35;;;;;;;6.20;3.87;;;9.60;82.40;;;;;;5101689;28;20020;-66
2022/11/07 02:20:01;;;;;;;6.60;3.50;;;9.60;82.20;;;;;;5104572;28;20040;-70
2022/11/07 02:23:03;;;;;;;7.40;3.77;;;9.60;82.30;;;;;;5108237;28;20032;-69
2022/11/07 02:25:29;;;;;;;8.10;4.10;;;9.60;82.30;;;;;;5062324;28;20068;-68
2022/11/07 02:27:58;;;;;;;7.60;4.00;;;9.60;82.90;;;;;;5095100;28;20036;-70
2022/11/07 02:30:27;;;;;;;6.87;3.77;;;9.60;83.00;;;;;;5104970;28;20080;-70
2022/11/07 02:32:53;;;;;;;4.63;3.70;;;9.60;83.10;;;;;;5114376;28;20043;-69
2022/11/07 02:35:36;;;;;;;5.97;3.60;;;9.50;83.20;;;;;;5097480;28;20048;-69
2022/11/07 02:38:13;;;;;;;5.97;3.63;;;9.60;83.50;;;;;;5099609;28;20131;-68
2022/11/07 02:40:40;;;;;;;7.83;3.50;;;9.50;83.10;;;;;;5102762;28;20039;-69
2022/11/07 02:43:08;;;;;;;7.23;3.80;;;9.60;83.10;;;;;;5108799;28;20114;-71
2022/11/07 02:45:36;;;;;;;6.73;3.77;;;9.60;83.20;;;;;;5095385;28;20052;-66
2022/11/07 02:48:02;;;;;;;7.07;3.87;;;9.60;83.10;;;;;;5109612;28;20035;-69
2022/11/07 02:50:28;;;;;;;10.37;3.73;;;9.50;83.00;;;;;;5095589;28;20051;-69
2022/11/07 02:52:54;;;;;;;8.23;3.60;;;9.60;84.10;;;;;;5109076;27;20032;-70
2022/11/07 02:55:19;;;;;;;8.20;3.63;;;9.60;84.20;;;;;;5102378;28;20054;-70
2022/11/07 02:57:45;;;;;;;7.07;3.50;;;9.60;84.50;;;;;;5101592;28;20035;-70
2022/11/07 03:00:13;;;;;;;9.20;3.60;;;9.60;83.80;;;;;;5109211;28;20419;-68
2022/11/07 03:02:45;;;;;;;8.07;3.50;;;9.60;83.60;;;;;;5105285;28;20024;-69
2022/11/07 03:05:15;;;;;;;7.68;3.72;;;9.60;83.50;;;;;;5102218;28;20032;-67
2022/11/07 03:07:43;;;;;;;4.80;3.30;;;9.60;83.80;;;;;;5100721;28;20596;-68
2022/11/07 03:10:09;;;;;;;6.23;3.50;;;9.60;83.60;;;;;;5110200;28;20039;-69
2022/11/07 03:12:35;;;;;;;9.10;3.50;;;9.50;83.40;;;;;;5097211;28;20032;-67
2022/11/07 03:15:01;;;;;;;5.83;3.60;;;9.60;83.40;;;;;;5106183;28;20047;-70
2022/11/07 03:17:27;;;;;;;5.10;3.27;;;9.60;84.30;;;;;;5093889;28;20032;-69
2022/11/07 03:19:52;;;;;;;7.83;3.30;;;9.60;84.30;;;;;;5103323;28;20031;-69
2022/11/07 03:22:18;;;;;;;6.60;3.20;;;9.60;84.80;;;;;;5102589;28;20093;-71
2022/11/07 03:24:44;;;;;;;7.37;3.60;;;9.60;84.60;;;;;;5106976;28;20089;-70
2022/11/07 03:27:09;;;;;;;5.00;3.20;;;9.60;84.10;;;;;;5095894;28;20032;-70
2022/11/07 03:29:35;;;;;;;5.00;3.23;;;9.60;84.00;;;;;;5108062;28;20110;-68
2022/11/07 03:32:01;;;;;;;5.50;3.40;;;9.60;84.30;;;;;;5101182;28;20075;-64
2022/11/07 03:34:26;;;;;;;4.03;3.20;;;9.60;84.60;;;;;;5101146;28;20462;-70
2022/11/07 03:36:52;;;;;;;5.00;2.87;;;9.70;84.40;;;;;;5108256;28;20169;-70
2022/11/07 03:39:18;;;;;;;3.90;2.83;;;9.70;84.20;;;;;;5095823;28;20047;-68
2022/11/07 03:41:43;;;;;;;6.40;3.03;;;9.70;84.70;;;;;;5107236;28;20391;-69
2022/11/07 03:44:09;;;;;;;4.40;2.90;;;9.60;84.80;;;;;;5101905;28;20477;-70
2022/11/07 03:46:35;;;;;;;4.83;3.10;;;9.70;85.00;;;;;;5100323;28;20042;-69
2022/11/07 03:49:00;;;;;;;6.00;3.07;;;9.70;85.10;;;;;;5098742;28;20106;-69
2022/11/07 03:51:26;;;;;;;4.17;3.20;;;9.70;85.10;;;;;;5103141;28;20057;-68
2022/11/07 03:53:52;;;;;;;5.13;3.10;;;9.70;85.10;;;;;;5104987;28;20085;-68
2022/11/07 03:56:17;;;;;;;7.03;3.50;;;9.70;85.80;;;;;;5095893;28;20032;-68
2022/11/07 03:58:43;;;;;;;7.27;2.97;;;9.70;85.30;;;;;;5109187;28;20048;-67
2022/11/07 04:01:10;;;;;;;5.63;3.43;;;9.70;85.00;;;;;;5099298;28;20037;-68
2022/11/07 04:03:36;;;;;;;7.23;3.70;;;9.70;85.00;;;;;;5106282;28;20032;-68
2022/11/07 04:06:01;;;;;;;7.80;3.47;;;9.80;85.70;;;;;;5095229;28;20034;-68
2022/11/07 04:08:27;;;;;;;13.50;4.20;;;9.80;85.90;;;;;;5105551;28;20024;-69
2022/11/07 04:10:53;;;;;;;15.20;12.57;;;9.80;86.10;;;;;;5102407;28;20036;-69
2022/11/07 04:18:47;;;;;;;4.47;2.80;;;9.80;85.90;;;;;;5094120;28;20035;-69
2022/11/07 04:21:13;;;;;;;4.20;3.00;;;9.80;85.60;;;;;;5111945;28;20036;-68
2022/11/07 04:23:38;;;;;;;7.10;3.50;;;9.80;85.80;;;;;;5095847;28;20034;-70
2022/11/07 04:28:48;;;;;;;4.97;2.83;;;9.80;84.80;;;;;;5105840;28;20085;-65
2022/11/07 04:31:14;;;;;;;6.10;2.93;;;9.80;84.40;;;;;;5094338;28;20040;-70
2022/11/07 04:33:39;;;;;;;6.03;3.63;;;9.80;84.90;;;;;;5108456;28;20127;-70
2022/11/07 04:36:05;;;;;;;6.90;3.00;;;9.70;85.30;;;;;;5112948;28;20054;-68
2022/11/07 04:38:31;;;;;;;7.07;3.37;;;9.70;85.40;;;;;;5105013;28;20032;-69
2022/11/07 04:40:57;;;;;;;5.83;3.50;;;9.70;85.00;;;;;;5103813;28;20058;-70
2022/11/07 04:43:25;;;;;;;6.50;3.07;;;9.70;86.00;;;;;;5097649;28;20028;-70
2022/11/07 04:45:51;;;;;;;7.30;3.13;;;9.60;86.10;;;;;;5109167;28;20047;-68
2022/11/07 04:48:17;;;;;;;6.17;3.00;;;9.60;87.00;;;;;;5092927;28;20056;-69
2022/11/07 04:50:43;;;;;;;7.10;3.37;;;9.60;86.70;;;;;;5092798;28;20043;-70
2022/11/07 04:53:12;;;;;;;5.70;2.80;;;9.60;86.50;;;;;;5092215;28;20121;-69
2022/11/07 04:55:37;;;;;;;5.00;3.13;;;9.60;86.30;;;;;;5103756;28;20049;-70
2022/11/07 04:58:03;;;;;;;5.83;3.37;;;9.60;85.80;;;;;;5098430;28;20591;-70
2022/11/07 05:00:29;;;;;;;4.90;3.10;;;9.60;86.20;;;;;;5108695;28;20447;-70
2022/11/07 05:02:55;;;;;;;6.10;3.30;;;9.50;86.10;;;;;;5096952;28;20031;-69
2022/11/07 05:05:20;;;;;;;7.27;3.50;;;9.50;85.80;;;;;;5104754;28;20016;-70
2022/11/07 05:07:46;;;;;;;5.40;3.77;;;9.60;86.10;;;;;;5092099;28;20436;-69
2022/11/07 05:10:17;;;;;;;8.67;3.40;;;9.50;86.10;;;;;;5102177;28;20032;-68
2022/11/07 05:12:43;;;;;;;7.53;3.67;;;9.50;86.20;;;;;;5097031;28;20051;-64
2022/11/07 05:15:08;;;;;;;8.43;3.73;;;9.50;86.50;;;;;;5105929;28;20402;-66
2022/11/07 05:17:34;;;;;;;4.80;2.83;;;9.50;86.90;;;;;;5109002;28;20212;-66
2022/11/07 05:20:00;;;;;;;5.40;3.33;;;9.50;86.50;;;;;;5094883;28;20035;-69
2022/11/07 05:25:10;;;;;;;5.57;3.43;;;9.50;86.50;;;;;;5105258;28;20089;-70
2022/11/07 05:27:35;;;;;;;4.80;3.40;;;9.50;86.40;;;;;;5095595;28;20036;-68
2022/11/07 05:30:01;;;;;;;8.67;3.83;;;9.50;86.40;;;;;;5108065;28;20028;-69
2022/11/07 05:32:27;;;;;;;6.30;4.10;;;9.40;86.60;;;;;;5092365;28;20037;-69
2022/11/07 05:34:52;;;;;;;9.20;3.77;;;9.40;86.70;;;;;;5092344;28;20119;-69
2022/11/07 05:37:18;;;;;;;10.83;3.80;;;9.40;86.50;;;;;;5105493;28;20469;-68
2022/11/07 05:39:43;;;;;;;45.87;4.93;;;9.40;87.00;;;;;;5095366;28;20040;-66
2022/11/07 05:42:09;;;;;;;44.10;6.03;;;9.40;86.70;;;;;;5108564;28;20167;-70
2022/11/07 05:44:35;;;;;;;43.77;5.90;;;9.40;86.70;;;;;;5102413;28;20051;-70
2022/11/07 05:47:01;;;;;;;40.80;5.20;;;9.40;87.30;;;;;;5105237;28;20478;-69
2022/11/07 05:49:26;;;;;;;27.53;5.90;;;9.40;87.00;;;;;;5095577;28;20098;-70
2022/11/07 05:51:52;;;;;;;23.93;4.67;;;9.40;87.00;;;;;;5095727;28;20111;-68
2022/11/07 05:54:18;;;;;;;23.53;4.47;;;9.40;86.90;;;;;;5095429;28;20482;-69
2022/11/07 05:56:44;;;;;;;19.57;4.33;;;9.30;86.90;;;;;;5112194;28;20559;-67
2022/11/07 05:59:10;;;;;;;14.33;3.87;;;9.30;87.40;;;;;;5099256;28;20024;-69
2022/11/07 06:01:36;;;;;;;11.03;4.07;;;9.30;87.30;;;;;;5107915;28;20028;-68
2022/11/07 06:04:05;;;;;;;12.77;3.87;;;9.30;86.90;;;;;;5106472;28;20469;-69
2022/11/07 06:06:30;;;;;;;9.43;3.60;;;9.30;87.20;;;;;;5115631;28;20567;-70
2022/11/07 06:08:57;;;;;;;6.03;3.80;;;9.30;87.40;;;;;;5097330;28;20067;-69
2022/11/07 06:11:22;;;;;;;11.73;3.67;;;9.20;87.30;;;;;;5104349;28;20027;-69
2022/11/07 06:13:48;;;;;;;6.27;3.37;;;9.20;87.30;;;;;;5102035;28;20047;-69
2022/11/07 06:16:14;;;;;;;8.67;3.70;;;9.20;87.30;;;;;;5111965;28;20024;-67
2022/11/07 06:18:39;;;;;;;11.27;3.80;;;9.20;87.70;;;;;;5098710;28;20516;-68
2022/11/07 06:21:06;;;;;;;11.83;4.10;;;9.20;87.70;;;;;;5107993;28;20039;-68
2022/11/07 06:23:32;;;;;;;8.00;3.67;;;9.20;88.10;;;;;;5095045;28;20363;-68
2022/11/07 06:25:58;;;;;;;11.93;3.97;;;9.30;88.40;;;;;;5094988;28;20543;-68
2022/11/07 06:28:23;;;;;;;10.03;5.10;;;9.30;87.60;;;;;;5111518;28;20040;-69
2022/11/07 06:30:49;;;;;;;9.13;4.03;;;9.30;87.40;;;;;;5098892;28;20027;-69
2022/11/07 06:33:17;;;;;;;11.43;4.40;;;9.30;87.90;;;;;;5107040;28;20032;-67
2022/11/07 06:35:44;;;;;;;11.93;4.77;;;9.30;87.90;;;;;;5094631;28;20119;-66
2022/11/07 06:38:12;;;;;;;11.50;4.77;;;9.30;87.50;;;;;;5099650;28;20038;-68
2022/11/07 06:40:40;;;;;;;15.17;5.50;;;9.30;87.50;;;;;;5115475;28;20035;-69
2022/11/07 06:43:14;;;;;;;11.33;4.93;;;9.40;87.90;;;;;;5115208;28;20049;-66
2022/11/07 06:45:41;;;;;;;9.13;4.37;;;9.40;88.20;;;;;;5114958;28;20051;-66
2022/11/07 06:48:07;;;;;;;11.27;3.80;;;9.40;88.50;;;;;;5109321;28;20478;-68
2022/11/07 06:50:34;;;;;;;14.03;4.40;;;9.40;88.40;;;;;;5103103;28;20031;-69
2022/11/07 06:53:08;;;;;;;8.33;3.70;;;9.50;89.70;;;;;;5102281;28;20398;-68
2022/11/07 06:55:35;;;;;;;9.73;4.17;;;9.50;89.50;;;;;;5111110;28;20042;-68
2022/11/07 06:58:01;;;;;;;7.73;4.73;;;9.60;89.60;;;;;;5114838;28;20080;-69
2022/11/07 07:00:29;;;;;;;8.77;4.50;;;9.70;89.70;;;;;;5114627;28;20028;-68
2022/11/07 07:02:54;;;;;;;7.60;5.20;;;9.70;89.90;;;;;;5102710;28;20152;-68
2022/11/07 07:05:20;;;;;;;8.90;4.83;;;9.80;89.40;;;;;;5109477;28;20040;-67
2022/11/07 07:07:46;;;;;;;7.23;4.17;;;9.80;89.20;;;;;;5095239;28;20070;-69
2022/11/07 07:10:12;;;;;;;8.23;4.50;;;9.90;89.90;;;;;;5094165;28;20058;-70
2022/11/07 07:12:38;;;;;;;8.87;4.20;;;9.90;90.00;;;;;;5094258;28;20036;-69
2022/11/07 07:15:04;;;;;;;9.30;3.90;;;10.00;89.70;;;;;;5094094;28;20512;-70
2022/11/07 07:17:30;;;;;;;6.30;4.00;;;10.10;89.50;;;;;;5093771;28;20508;-70
2022/11/07 07:19:56;;;;;;;13.53;4.50;;;10.20;89.10;;;;;;5094027;28;20036;-69
2022/11/07 07:22:21;;;;;;;9.15;4.38;;;10.30;88.90;;;;;;5093956;28;20477;-69
2022/11/07 07:24:50;;;;;;;7.40;4.20;;;10.30;88.90;;;;;;5093904;28;20115;-65
2022/11/07 07:27:16;;;;;;;6.07;4.13;;;10.40;89.10;;;;;;5094258;28;20031;-73
2022/11/07 07:29:41;;;;;;;9.70;4.30;;;10.40;89.20;;;;;;5094052;28;20034;-72
2022/11/07 07:32:07;;;;;;;9.65;4.68;;;10.50;89.20;;;;;;5093673;28;20028;-73
2022/11/07 07:34:33;;;;;;;10.52;4.88;;;10.50;88.90;;;;;;5093402;28;20064;-72
2022/11/07 07:36:58;;;;;;;8.55;4.78;;;10.60;88.20;;;;;;5093633;28;20075;-73
2022/11/07 07:39:26;;;;;;;7.70;4.45;;;10.70;88.00;;;;;;5093805;28;20102;-72
2022/11/07 07:41:52;;;;;;;13.18;4.93;;;10.70;88.40;;;;;;5093794;28;20073;-73
2022/11/07 07:44:17;;;;;;;8.40;4.38;;;10.80;87.70;;;;;;5093510;28;20052;-72
2022/11/07 07:46:43;;;;;;;7.82;4.70;;;10.80;87.70;;;;;;5093613;28;20036;-71
2022/11/07 07:49:09;;;;;;;8.35;4.45;;;10.80;87.60;;;;;;5093225;28;20093;-73
2022/11/07 07:51:34;;;;;;;6.93;3.80;;;10.90;87.40;;;;;;5093160;28;20534;-71
2022/11/07 07:54:00;;;;;;;7.20;4.07;;;10.90;86.80;;;;;;5093343;28;20052;-74
2022/11/07 07:56:26;;;;;;;7.22;4.30;;;11.00;86.40;;;;;;5093774;28;20028;-74
2022/11/07 07:58:52;;;;;;;6.57;3.70;;;11.00;85.80;;;;;;5093517;28;20040;-74
2022/11/07 08:01:18;;;;;;;7.75;3.88;;;11.00;85.20;;;;;;5093228;28;20047;-73
2022/11/07 08:03:44;;;;;;;9.40;3.70;;;11.10;84.80;;;;;;5093445;28;20043;-74
2022/11/07 08:06:09;;;;;;;7.47;3.58;;;11.10;84.20;;;;;;5093058;28;20036;-74
2022/11/07 08:08:35;;;;;;;6.20;3.40;;;11.20;83.70;;;;;;5093239;28;20499;-73
2022/11/07 08:11:04;;;;;;;6.45;3.65;;;11.30;83.60;;;;;;5092164;28;20047;-74
2022/11/07 08:13:30;;;;;;;6.43;3.97;;;11.30;82.80;;;;;;5093310;28;20043;-72
2022/11/07 08:15:56;;;;;;;6.20;3.47;;;11.40;82.60;;;;;;5093415;28;20032;-73
2022/11/07 08:18:23;;;;;;;6.78;3.95;;;11.40;82.30;;;;;;5093164;28;20050;-74
2022/11/07 08:20:50;;;;;;;7.50;4.10;;;11.50;82.50;;;;;;5091235;28;20032;-70
2022/11/07 08:23:16;;;;;;;4.75;3.45;;;11.50;82.50;;;;;;5092570;28;20040;-74
2022/11/07 08:25:48;;;;;;;6.82;3.47;;;11.60;82.50;;;;;;5109596;28;20520;-69
2022/11/07 08:28:14;;;;;;;6.60;3.83;;;11.70;82.30;;;;;;5112995;28;20100;-72
2022/11/07 08:30:39;;;;;;;6.68;3.97;;;11.80;82.10;;;;;;5112985;28;20485;-69
2022/11/07 08:33:05;;;;;;;6.07;3.90;;;11.80;82.20;;;;;;5113574;28;20447;-70
2022/11/07 08:35:31;;;;;;;5.18;3.80;;;11.90;82.20;;;;;;5111462;28;20056;-74
2022/11/07 08:37:58;;;;;;;6.82;3.95;;;11.90;81.90;;;;;;5027834;28;20052;-63
2022/11/07 08:40:24;;;;;;;5.57;4.07;;;12.00;81.60;;;;;;5032208;28;20041;-73
2022/11/07 08:42:50;;;;;;;4.40;3.30;;;12.10;82.00;;;;;;5032227;28;20029;-74
2022/11/07 08:45:15;;;;;;;5.03;3.60;;;12.10;81.80;;;;;;5032525;28;20099;-74
2022/11/07 08:47:41;;;;;;;7.00;3.30;;;12.10;81.40;;;;;;5031908;28;20092;-70
2022/11/07 08:50:07;;;;;;;8.10;3.53;;;12.20;80.70;;;;;;5031851;28;20044;-70
2022/11/07 08:52:35;;;;;;;6.43;3.60;;;12.20;80.40;;;;;;5032204;28;20049;-78
2022/11/07 08:55:01;;;;;;;5.22;3.53;;;12.30;80.30;;;;;;5032128;28;20037;-71
2022/11/07 08:57:27;;;;;;;7.47;4.22;;;12.30;80.00;;;;;;5032212;28;20069;-67
2022/11/07 08:59:52;;;;;;;8.35;4.30;;;12.40;79.80;;;;;;5026126;28;20517;-70
2022/11/07 09:02:18;;;;;;;7.68;3.90;;;12.40;80.00;;;;;;5051881;28;20029;-73
2022/11/07 09:04:44;;;;;;;5.65;3.72;;;12.50;79.60;;;;;;5051721;28;20041;-73
2022/11/07 09:07:09;;;;;;;6.63;3.60;;;12.50;78.90;;;;;;5051567;28;20166;-74
2022/11/07 09:09:35;;;;;;;5.93;3.78;;;12.60;79.20;;;;;;5051690;28;20040;-76
2022/11/07 09:12:00;;;;;;;7.13;4.47;;;12.60;78.90;;;;;;5052376;28;20033;-74
2022/11/07 09:14:26;;;;;;;10.50;4.03;;;12.70;79.00;;;;;;5052528;28;20045;-73
2022/11/07 09:16:52;;;;;;;6.80;3.72;;;12.70;78.90;;;;;;5053329;28;20045;-75
2022/11/07 09:19:18;;;;;;;6.85;3.75;;;12.80;78.80;;;;;;5056232;28;20106;-74
2022/11/07 09:21:44;;;;;;;6.85;3.70;;;12.90;78.80;;;;;;5051429;28;20037;-71
2022/11/07 09:24:10;;;;;;;5.80;3.40;;;12.90;78.90;;;;;;5035738;28;20119;-73
2022/11/07 09:26:36;;;;;;;6.88;3.80;;;13.00;78.60;;;;;;5034811;28;20077;-74
2022/11/07 09:29:01;;;;;;;6.97;4.15;;;13.10;78.10;;;;;;5034772;28;20033;-76
2022/11/07 09:31:27;;;;;;;10.45;4.10;;;13.10;78.00;;;;;;5035951;28;20142;-75
2022/11/07 09:33:53;;;;;;;9.65;4.47;;;13.20;78.60;;;;;;5035262;28;20046;-75
2022/11/07 09:36:20;;;;;;;10.02;4.53;;;13.30;78.40;;;;;;5035901;28;20120;-74
2022/11/07 09:38:46;;;;;;;6.25;4.47;;;13.30;77.60;;;;;;5036099;28;20033;-75
2022/11/07 09:41:34;;;;;;;7.40;4.30;;;13.40;77.30;;;;;;5036055;28;20030;-76
2022/11/07 09:44:20;;;;;;;8.50;4.20;;;13.50;76.80;;;;;;5036892;28;20038;-75
2022/11/07 09:47:00;;;;;;;6.45;4.18;;;13.60;75.90;;;;;;5037281;28;20033;-75
2022/11/07 09:49:35;;;;;;;7.10;4.53;;;13.60;75.90;;;;;;5034827;28;20033;-74
2022/11/07 09:52:25;;;;;;;7.57;4.05;;;13.70;75.40;;;;;;5035557;28;20033;-74
2022/11/07 09:54:59;;;;;;;8.48;3.42;;;13.80;74.40;;;;;;5004581;28;20056;-75
2022/11/07 09:57:27;;;;;;;5.65;3.90;;;13.80;73.50;;;;;;5035325;28;20109;-75
2022/11/07 09:59:56;;;;;;;8.88;3.63;;;13.90;72.60;;;;;;5035403;28;20038;-75
2022/11/07 10:07:34;;;;;;;7.90;3.83;;;14.10;72.90;;;;;;5131231;27;20111;-75
2022/11/07 10:10:12;;;;;;;10.15;4.18;;;14.20;74.70;;;;;;5131420;28;20019;-73
2022/11/07 10:13:00;;;;;;;32.85;5.95;;;14.20;73.90;;;;;;5131572;28;20027;-79
2022/11/07 10:15:47;;;;;;;14.88;11.45;;;14.30;75.00;;;;;;5130427;28;20019;-76
2022/11/07 10:18:31;;;;;;;10.80;4.90;;;14.30;76.40;;;;;;5131007;28;20531;-75
2022/11/07 10:21:40;;;;;;;12.85;4.63;;;14.40;78.20;;;;;;5130907;28;20039;-72
2022/11/07 10:24:27;;;;;;;5.10;3.78;;;14.50;74.80;;;;;;5109718;28;20032;-76
2022/11/07 10:26:54;;;;;;;7.43;4.25;;;14.50;74.20;;;;;;5137693;27;20058;-74
2022/11/07 10:29:25;;;;;;;6.72;4.07;;;14.60;71.10;;;;;;5138747;27;20475;-74
2022/11/07 10:32:08;;;;;;;20.85;10.75;;;14.70;71.30;;;;;;5130801;28;20030;-75
2022/11/07 10:34:36;;;;;;;8.20;5.03;;;14.80;74.60;;;;;;5130486;28;20023;-74
2022/11/07 10:37:03;;;;;;;23.15;11.63;;;14.90;72.50;;;;;;5130800;28;20027;-74
2022/11/07 10:39:30;;;;;;;128.73;39.05;;;14.90;74.20;;;;;;5130592;28;20024;-75
2022/11/07 10:42:14;;;;;;;7.43;4.40;;;15.00;73.60;;;;;;5130618;28;20387;-74
2022/11/07 10:44:41;;;;;;;4.93;4.03;;;15.10;73.60;;;;;;5130349;28;20023;-74
2022/11/07 10:47:21;;;;;;;16.67;9.75;;;15.20;73.60;;;;;;5130566;28;20118;-75
2022/11/07 10:49:56;;;;;;;27.25;13.82;;;15.30;75.30;;;;;;5130812;28;20053;-76
2022/11/07 10:52:22;;;;;;;7.93;4.15;;;15.40;73.30;;;;;;5130084;28;20062;-79
2022/11/07 10:54:47;;;;;;;8.10;5.63;;;15.40;71.90;;;;;;5130707;28;20031;-75
2022/11/07 10:57:22;;;;;;;29.83;14.00;;;15.50;71.20;;;;;;5133750;27;20034;-74
2022/11/07 10:59:51;;;;;;;10.70;4.32;;;15.60;76.50;;;;;;5138847;27;20019;-79
2022/11/07 11:02:22;;;;;;;9.65;6.43;;;15.60;72.50;;;;;;5130416;27;20030;-79
2022/11/07 11:04:54;;;;;;;38.20;21.05;;;15.70;70.70;;;;;;5129811;28;20054;-76
2022/11/07 11:07:23;;;;;;;6.32;4.95;;;15.80;73.80;;;;;;5129894;28;20085;-78
2022/11/07 11:09:58;;;;;;;12.77;8.27;;;15.80;71.90;;;;;;5130111;28;20032;-79
2022/11/07 11:12:32;;;;;;;7.00;4.50;;;15.90;72.50;;;;;;5130324;28;20387;-76
2022/11/07 11:15:06;;;;;;;11.45;4.50;;;15.90;71.50;;;;;;5130203;28;20031;-81
2022/11/07 11:17:32;;;;;;;6.38;4.38;;;16.00;70.40;;;;;;5122521;28;20030;-79
2022/11/07 11:19:58;;;;;;;7.10;4.72;;;16.00;68.90;;;;;;5116577;28;20011;-77
2022/11/07 11:22:24;;;;;;;157.00;45.03;;;16.10;70.00;;;;;;5116231;28;20073;-79
2022/11/07 11:25:11;;;;;;;7.22;5.05;;;16.20;75.90;;;;;;5116569;28;20093;-79
2022/11/07 11:27:38;;;;;;;9.07;4.90;;;16.20;73.10;;;;;;5116160;28;20437;-80
2022/11/07 11:30:06;;;;;;;6.28;4.38;;;16.30;71.00;;;;;;5116064;28;20536;-80
2022/11/07 11:32:37;;;;;;;7.20;3.90;;;16.30;70.80;;;;;;5115774;28;20107;-78
2022/11/07 11:35:41;;;;;;;6.85;4.32;;;16.40;70.40;;;;;;5116176;28;20054;-79
2022/11/07 11:38:16;;;;;;;4.90;4.20;;;16.50;69.60;;;;;;5116106;28;20034;-79
2022/11/07 11:41:05;;;;;;;6.80;4.22;;;16.50;69.20;;;;;;5115314;28;20020;-79
2022/11/07 11:43:44;;;;;;;6.90;3.90;;;16.60;67.20;;;;;;5114723;28;20089;-79
2022/11/07 11:46:13;;;;;;;5.60;4.50;;;16.60;67.40;;;;;;5097490;28;20373;-80
2022/11/07 11:49:10;;;;;;;6.32;4.18;;;16.60;68.00;;;;;;5115581;28;20107;-80
2022/11/07 11:51:44;;;;;;;5.75;4.10;;;16.70;68.20;;;;;;5114764;28;20070;-80
2022/11/07 11:54:13;;;;;;;5.57;4.22;;;16.70;68.00;;;;;;5115116;28;20461;-79
2022/11/07 11:56:41;;;;;;;7.28;3.95;;;16.80;68.10;;;;;;5115014;28;20110;-80
2022/11/07 11:59:28;;;;;;;7.05;3.60;;;16.80;67.10;;;;;;5115553;28;20360;-79
2022/11/07 12:02:09;;;;;;;5.20;3.80;;;16.90;66.50;;;;;;5096963;28;20386;-78
2022/11/07 12:04:58;;;;;;;4.82;3.92;;;16.90;65.40;;;;;;5125565;27;20073;-80
2022/11/07 12:08:06;;;;;;;6.72;4.13;;;16.90;65.60;;;;;;5130389;27;20035;-80
2022/11/07 12:10:41;;;;;;;5.47;3.50;;;16.90;65.60;;;;;;5117660;27;20559;-84
2022/11/07 12:13:26;;;;;;;7.25;4.35;;;16.90;65.60;;;;;;5136128;27;20043;-78
2022/11/07 12:16:26;;;;;;;7.47;3.80;;;17.00;65.70;;;;;;5135726;27;20054;-81
2022/11/07 12:19:12;;;;;;;5.00;3.70;;;17.00;65.70;;;;;;5132856;27;20049;-82
2022/11/07 12:22:07;;;;;;;5.68;4.00;;;17.00;65.20;;;;;;5125678;27;20072;-75
2022/11/07 12:24:44;;;;;;;13.23;5.13;;;17.10;65.60;;;;;;5124416;27;20091;-69
2022/11/07 12:27:13;;;;;;;5.57;4.13;;;17.10;66.00;;;;;;5123992;27;20036;-77
2022/11/07 12:29:57;;;;;;;9.35;4.13;;;17.10;66.40;;;;;;5125637;27;20019;-78
2022/11/07 12:32:50;;;;;;;5.68;3.75;;;17.20;65.10;;;;;;5135502;27;20012;-78
2022/11/07 12:35:34;;;;;;;5.22;4.00;;;17.20;65.20;;;;;;5135113;27;20078;-75
2022/11/07 12:38:11;;;;;;;5.38;3.85;;;17.20;65.60;;;;;;5135436;27;20040;-81
2022/11/07 12:41:08;;;;;;;5.90;3.80;;;17.20;65.30;;;;;;5134927;27;20027;-77
2022/11/07 12:43:34;;;;;;;5.40;4.40;;;17.20;65.10;;;;;;5135032;27;20543;-78
2022/11/07 12:46:18;;;;;;;5.90;4.28;;;17.20;65.10;;;;;;5135441;27;20035;-79
2022/11/07 12:48:56;;;;;;;4.78;3.95;;;17.30;66.00;;;;;;5135194;27;20019;-78
2022/11/07 12:51:40;;;;;;;6.07;4.28;;;17.30;66.50;;;;;;5135181;27;20031;-82
2022/11/07 12:54:35;;;;;;;7.78;4.15;;;17.30;66.90;;;;;;5134821;27;20098;-71
2022/11/07 12:57:12;;;;;;;5.75;4.13;;;17.30;66.70;;;;;;5112408;27;20063;-76
2022/11/07 12:59:39;;;;;;;6.55;4.03;;;17.30;66.10;;;;;;5134715;27;20019;-77
2022/11/07 13:02:16;;;;;;;6.15;4.13;;;17.40;65.30;;;;;;5129070;27;20034;-77
2022/11/07 13:05:12;;;;;;;6.90;3.78;;;17.30;66.40;;;;;;5124187;27;20055;-72
2022/11/07 13:08:00;;;;;;;7.22;3.85;;;17.30;65.50;;;;;;5080510;28;20063;-66
2022/11/07 13:10:40;;;;;;;5.72;3.80;;;17.30;66.30;;;;;;5080255;28;20020;-80
2022/11/07 13:13:14;;;;;;;4.97;4.03;;;17.40;66.20;;;;;;5066483;28;20063;-70
2022/11/07 13:15:39;;;;;;;5.38;3.83;;;17.40;66.20;;;;;;5073315;28;20024;-75
2022/11/07 13:18:23;;;;;;;5.85;3.80;;;17.30;64.80;;;;;;5073442;28;20426;-75
2022/11/07 13:20:58;;;;;;;7.28;3.75;;;17.30;65.60;;;;;;5073320;28;20039;-74